sensor_id;sensor_type;location;lat;lon;timestamp;P1;durP1;ratioP1;P2;durP2;ratioP2
24337;SDS011;12457;50.832;4.346;2023-07-31T00:01:54;0.20;;;0.20;;
24337;SDS011;12457;50.832;4.346;2023-07-31T00:04:20;0.20;;;0.20;;
24337;SDS011;12457;50.832;4.346;2023-07-31T00:06:46;1.13;;;1.02;;
24337;SDS011;12457;50.832;4.346;2023-07-31T00:09:11;1.95;;;0.55;;
24337;SDS011;12457;50.832;4.346;2023-07-31T00:11:37;0.85;;;0.63;;
24337;SDS011;12457;50.832;4.346;2023-07-31T00:14:03;0.35;;;0.35;;
24337;SDS011;12457;50.832;4.346;2023-07-31T00:16:29;0.73;;;0.73;;
24337;SDS011;12457;50.832;4.346;2023-07-31T00:18:54;2.00;;;0.90;;
24337;SDS011;12457;50.832;4.346;2023-07-31T00:21:20;1.75;;;1.38;;
24337;SDS011;12457;50.832;4.346;2023-07-31T00:23:46;0.03;;;0.03;;
24337;SDS011;12457;50.832;4.346;2023-07-31T00:26:11;0.00;;;0.00;;
24337;SDS011;12457;50.832;4.346;2023-07-31T00:28:37;0.57;;;0.57;;
24337;SDS011;12457;50.832;4.346;2023-07-31T00:31:21;0.05;;;0.00;;
24337;SDS011;12457;50.832;4.346;2023-07-31T00:33:46;0.38;;;0.38;;
24337;SDS011;12457;50.832;4.346;2023-07-31T00:36:12;0.10;;;0.10;;
24337;SDS011;12457;50.832;4.346;2023-07-31T00:38:38;0.32;;;0.28;;
24337;SDS011;12457;50.832;4.346;2023-07-31T00:41:03;0.25;;;0.20;;
24337;SDS011;12457;50.832;4.346;2023-07-31T00:43:29;0.50;;;0.50;;
24337;SDS011;12457;50.832;4.346;2023-07-31T00:45:58;1.85;;;0.63;;
24337;SDS011;12457;50.832;4.346;2023-07-31T00:48:24;0.45;;;0.30;;
24337;SDS011;12457;50.832;4.346;2023-07-31T00:50:50;0.25;;;0.25;;
24337;SDS011;12457;50.832;4.346;2023-07-31T00:53:16;0.95;;;0.95;;
24337;SDS011;12457;50.832;4.346;2023-07-31T00:55:43;0.85;;;0.80;;
24337;SDS011;12457;50.832;4.346;2023-07-31T00:58:10;0.57;;;0.57;;
24337;SDS011;12457;50.832;4.346;2023-07-31T01:00:35;1.08;;;0.90;;
24337;SDS011;12457;50.832;4.346;2023-07-31T01:03:01;2.60;;;0.98;;
24337;SDS011;12457;50.832;4.346;2023-07-31T01:05:39;0.10;;;0.10;;
24337;SDS011;12457;50.832;4.346;2023-07-31T01:08:48;0.00;;;0.00;;
24337;SDS011;12457;50.832;4.346;2023-07-31T01:11:16;0.35;;;0.32;;
24337;SDS011;12457;50.832;4.346;2023-07-31T01:13:46;0.32;;;0.32;;
24337;SDS011;12457;50.832;4.346;2023-07-31T01:16:12;0.00;;;0.00;;
24337;SDS011;12457;50.832;4.346;2023-07-31T01:18:39;11.02;;;1.83;;
24337;SDS011;12457;50.832;4.346;2023-07-31T01:24:28;19.55;;;5.70;;
24337;SDS011;12457;50.832;4.346;2023-07-31T01:27:12;20.17;;;5.53;;
24337;SDS011;12457;50.832;4.346;2023-07-31T01:29:46;16.33;;;5.22;;
24337;SDS011;12457;50.832;4.346;2023-07-31T01:32:24;18.83;;;5.50;;
24337;SDS011;12457;50.832;4.346;2023-07-31T01:34:52;14.23;;;5.15;;
24337;SDS011;12457;50.832;4.346;2023-07-31T01:37:19;18.52;;;6.20;;
24337;SDS011;12457;50.832;4.346;2023-07-31T01:39:45;15.65;;;5.45;;
24337;SDS011;12457;50.832;4.346;2023-07-31T01:42:11;18.98;;;5.63;;
24337;SDS011;12457;50.832;4.346;2023-07-31T01:44:36;13.23;;;5.78;;
24337;SDS011;12457;50.832;4.346;2023-07-31T01:49:58;17.15;;;5.50;;
24337;SDS011;12457;50.832;4.346;2023-07-31T01:52:24;16.13;;;5.50;;
24337;SDS011;12457;50.832;4.346;2023-07-31T01:54:49;15.98;;;6.22;;
24337;SDS011;12457;50.832;4.346;2023-07-31T01:57:15;19.05;;;6.03;;
24337;SDS011;12457;50.832;4.346;2023-07-31T01:59:41;19.15;;;6.20;;
24337;SDS011;12457;50.832;4.346;2023-07-31T02:02:06;16.38;;;5.45;;
24337;SDS011;12457;50.832;4.346;2023-07-31T02:04:32;18.90;;;6.43;;
24337;SDS011;12457;50.832;4.346;2023-07-31T02:06:58;14.85;;;5.40;;
24337;SDS011;12457;50.832;4.346;2023-07-31T02:09:23;12.57;;;5.47;;
24337;SDS011;12457;50.832;4.346;2023-07-31T02:11:49;24.85;;;7.30;;
24337;SDS011;12457;50.832;4.346;2023-07-31T02:14:15;19.70;;;7.05;;
24337;SDS011;12457;50.832;4.346;2023-07-31T02:16:41;15.32;;;6.55;;
24337;SDS011;12457;50.832;4.346;2023-07-31T02:19:07;16.45;;;5.18;;
24337;SDS011;12457;50.832;4.346;2023-07-31T02:21:33;13.25;;;6.03;;
24337;SDS011;12457;50.832;4.346;2023-07-31T02:23:59;14.05;;;5.53;;
24337;SDS011;12457;50.832;4.346;2023-07-31T02:26:24;15.32;;;6.20;;
24337;SDS011;12457;50.832;4.346;2023-07-31T02:28:50;14.63;;;6.10;;
24337;SDS011;12457;50.832;4.346;2023-07-31T02:31:21;15.18;;;6.63;;
24337;SDS011;12457;50.832;4.346;2023-07-31T02:33:47;12.10;;;5.78;;
24337;SDS011;12457;50.832;4.346;2023-07-31T02:36:13;12.30;;;6.35;;
24337;SDS011;12457;50.832;4.346;2023-07-31T02:38:39;12.82;;;5.07;;
24337;SDS011;12457;50.832;4.346;2023-07-31T02:41:05;11.43;;;4.85;;
24337;SDS011;12457;50.832;4.346;2023-07-31T02:43:31;11.55;;;4.75;;
24337;SDS011;12457;50.832;4.346;2023-07-31T02:46:12;11.50;;;5.50;;
24337;SDS011;12457;50.832;4.346;2023-07-31T02:48:37;13.05;;;5.43;;
24337;SDS011;12457;50.832;4.346;2023-07-31T02:51:03;12.70;;;4.82;;
24337;SDS011;12457;50.832;4.346;2023-07-31T02:53:29;10.88;;;5.10;;
24337;SDS011;12457;50.832;4.346;2023-07-31T02:55:55;10.35;;;4.78;;
24337;SDS011;12457;50.832;4.346;2023-07-31T02:58:21;11.07;;;5.05;;
24337;SDS011;12457;50.832;4.346;2023-07-31T03:00:47;10.95;;;4.80;;
24337;SDS011;12457;50.832;4.346;2023-07-31T03:03:12;11.57;;;4.78;;
24337;SDS011;12457;50.832;4.346;2023-07-31T03:05:38;10.18;;;4.88;;
24337;SDS011;12457;50.832;4.346;2023-07-31T03:08:04;12.38;;;4.82;;
24337;SDS011;12457;50.832;4.346;2023-07-31T03:10:29;9.30;;;4.78;;
24337;SDS011;12457;50.832;4.346;2023-07-31T03:12:55;8.88;;;4.60;;
24337;SDS011;12457;50.832;4.346;2023-07-31T03:15:21;9.45;;;4.75;;
24337;SDS011;12457;50.832;4.346;2023-07-31T03:17:48;14.55;;;4.57;;
24337;SDS011;12457;50.832;4.346;2023-07-31T03:20:14;8.45;;;4.63;;
24337;SDS011;12457;50.832;4.346;2023-07-31T03:22:39;13.05;;;4.72;;
24337;SDS011;12457;50.832;4.346;2023-07-31T03:25:06;8.43;;;4.50;;
24337;SDS011;12457;50.832;4.346;2023-07-31T03:27:34;11.25;;;5.07;;
24337;SDS011;12457;50.832;4.346;2023-07-31T03:29:59;12.75;;;5.07;;
24337;SDS011;12457;50.832;4.346;2023-07-31T03:32:26;14.32;;;5.00;;
24337;SDS011;12457;50.832;4.346;2023-07-31T03:34:51;11.40;;;5.50;;
24337;SDS011;12457;50.832;4.346;2023-07-31T03:37:17;16.77;;;5.85;;
24337;SDS011;12457;50.832;4.346;2023-07-31T03:39:43;13.68;;;4.95;;
24337;SDS011;12457;50.832;4.346;2023-07-31T03:42:08;10.90;;;4.90;;
24337;SDS011;12457;50.832;4.346;2023-07-31T03:44:34;11.45;;;5.15;;
24337;SDS011;12457;50.832;4.346;2023-07-31T03:47:00;14.63;;;5.20;;
24337;SDS011;12457;50.832;4.346;2023-07-31T03:49:25;0.57;;;0.50;;
24337;SDS011;12457;50.832;4.346;2023-07-31T03:51:51;1.38;;;0.93;;
24337;SDS011;12457;50.832;4.346;2023-07-31T03:54:17;0.00;;;0.00;;
24337;SDS011;12457;50.832;4.346;2023-07-31T03:56:42;0.17;;;0.17;;
24337;SDS011;12457;50.832;4.346;2023-07-31T03:59:08;0.10;;;0.10;;
24337;SDS011;12457;50.832;4.346;2023-07-31T04:01:34;1.60;;;0.70;;
24337;SDS011;12457;50.832;4.346;2023-07-31T04:03:59;0.00;;;0.00;;
24337;SDS011;12457;50.832;4.346;2023-07-31T04:06:25;0.15;;;0.15;;
24337;SDS011;12457;50.832;4.346;2023-07-31T04:08:51;0.57;;;0.57;;
24337;SDS011;12457;50.832;4.346;2023-07-31T04:11:16;0.93;;;0.88;;
24337;SDS011;12457;50.832;4.346;2023-07-31T04:13:42;0.60;;;0.60;;
24337;SDS011;12457;50.832;4.346;2023-07-31T04:16:07;0.20;;;0.20;;
24337;SDS011;12457;50.832;4.346;2023-07-31T04:18:33;1.85;;;0.30;;
24337;SDS011;12457;50.832;4.346;2023-07-31T04:20:59;4.82;;;0.50;;
24337;SDS011;12457;50.832;4.346;2023-07-31T04:23:26;0.40;;;0.40;;
24337;SDS011;12457;50.832;4.346;2023-07-31T04:25:52;0.32;;;0.32;;
24337;SDS011;12457;50.832;4.346;2023-07-31T04:28:17;0.20;;;0.20;;
24337;SDS011;12457;50.832;4.346;2023-07-31T04:30:43;0.45;;;0.45;;
24337;SDS011;12457;50.832;4.346;2023-07-31T04:33:12;0.32;;;0.32;;
24337;SDS011;12457;50.832;4.346;2023-07-31T04:35:37;0.20;;;0.20;;
24337;SDS011;12457;50.832;4.346;2023-07-31T04:38:03;0.00;;;0.00;;
24337;SDS011;12457;50.832;4.346;2023-07-31T04:40:29;0.10;;;0.10;;
24337;SDS011;12457;50.832;4.346;2023-07-31T04:42:54;0.00;;;0.00;;
24337;SDS011;12457;50.832;4.346;2023-07-31T04:45:20;0.10;;;0.10;;
24337;SDS011;12457;50.832;4.346;2023-07-31T04:47:58;0.00;;;0.00;;
24337;SDS011;12457;50.832;4.346;2023-07-31T04:50:23;0.10;;;0.10;;
24337;SDS011;12457;50.832;4.346;2023-07-31T04:52:49;0.20;;;0.20;;
24337;SDS011;12457;50.832;4.346;2023-07-31T04:55:15;0.17;;;0.17;;
24337;SDS011;12457;50.832;4.346;2023-07-31T04:57:42;0.03;;;0.03;;
24337;SDS011;12457;50.832;4.346;2023-07-31T05:00:07;0.10;;;0.10;;
24337;SDS011;12457;50.832;4.346;2023-07-31T05:02:33;0.85;;;0.82;;
24337;SDS011;12457;50.832;4.346;2023-07-31T05:04:59;0.10;;;0.10;;
24337;SDS011;12457;50.832;4.346;2023-07-31T05:07:24;0.03;;;0.03;;
24337;SDS011;12457;50.832;4.346;2023-07-31T05:09:50;0.50;;;0.30;;
24337;SDS011;12457;50.832;4.346;2023-07-31T05:12:16;4.22;;;0.47;;
24337;SDS011;12457;50.832;4.346;2023-07-31T05:14:41;0.73;;;0.57;;
24337;SDS011;12457;50.832;4.346;2023-07-31T05:17:07;0.10;;;0.10;;
24337;SDS011;12457;50.832;4.346;2023-07-31T05:19:33;0.45;;;0.30;;
24337;SDS011;12457;50.832;4.346;2023-07-31T05:21:59;0.00;;;0.00;;
24337;SDS011;12457;50.832;4.346;2023-07-31T05:24:24;2.55;;;1.20;;
24337;SDS011;12457;50.832;4.346;2023-07-31T05:26:50;0.10;;;0.10;;
24337;SDS011;12457;50.832;4.346;2023-07-31T05:29:15;0.30;;;0.30;;
24337;SDS011;12457;50.832;4.346;2023-07-31T05:31:41;0.10;;;0.10;;
24337;SDS011;12457;50.832;4.346;2023-07-31T05:34:07;0.52;;;0.52;;
24337;SDS011;12457;50.832;4.346;2023-07-31T05:36:33;0.00;;;0.00;;
24337;SDS011;12457;50.832;4.346;2023-07-31T05:38:58;0.08;;;0.08;;
24337;SDS011;12457;50.832;4.346;2023-07-31T05:41:25;7.32;;;0.40;;
24337;SDS011;12457;50.832;4.346;2023-07-31T05:43:50;0.65;;;0.47;;
24337;SDS011;12457;50.832;4.346;2023-07-31T05:46:16;0.10;;;0.10;;
24337;SDS011;12457;50.832;4.346;2023-07-31T05:48:42;0.10;;;0.10;;
24337;SDS011;12457;50.832;4.346;2023-07-31T05:51:07;0.00;;;0.00;;
24337;SDS011;12457;50.832;4.346;2023-07-31T05:53:33;2.17;;;0.40;;
24337;SDS011;12457;50.832;4.346;2023-07-31T05:56:01;0.60;;;0.60;;
24337;SDS011;12457;50.832;4.346;2023-07-31T05:58:26;0.10;;;0.10;;
24337;SDS011;12457;50.832;4.346;2023-07-31T06:00:52;0.45;;;0.45;;
24337;SDS011;12457;50.832;4.346;2023-07-31T06:03:18;0.75;;;0.50;;
24337;SDS011;12457;50.832;4.346;2023-07-31T06:05:43;0.25;;;0.25;;
24337;SDS011;12457;50.832;4.346;2023-07-31T06:08:09;0.32;;;0.30;;
24337;SDS011;12457;50.832;4.346;2023-07-31T06:10:35;0.10;;;0.10;;
24337;SDS011;12457;50.832;4.346;2023-07-31T06:13:01;0.35;;;0.28;;
24337;SDS011;12457;50.832;4.346;2023-07-31T06:15:26;0.00;;;0.00;;
24337;SDS011;12457;50.832;4.346;2023-07-31T06:17:58;0.30;;;0.30;;
24337;SDS011;12457;50.832;4.346;2023-07-31T06:20:26;0.17;;;0.17;;
24337;SDS011;12457;50.832;4.346;2023-07-31T06:22:53;0.22;;;0.22;;
24337;SDS011;12457;50.832;4.346;2023-07-31T06:25:18;0.00;;;0.00;;
24337;SDS011;12457;50.832;4.346;2023-07-31T06:27:44;0.08;;;0.08;;
24337;SDS011;12457;50.832;4.346;2023-07-31T06:30:10;0.00;;;0.00;;
24337;SDS011;12457;50.832;4.346;2023-07-31T06:32:36;0.60;;;0.52;;
24337;SDS011;12457;50.832;4.346;2023-07-31T06:35:02;0.13;;;0.13;;
24337;SDS011;12457;50.832;4.346;2023-07-31T06:37:28;4.22;;;1.65;;
24337;SDS011;12457;50.832;4.346;2023-07-31T06:39:53;0.20;;;0.20;;
24337;SDS011;12457;50.832;4.346;2023-07-31T06:42:19;0.15;;;0.15;;
24337;SDS011;12457;50.832;4.346;2023-07-31T06:44:45;0.17;;;0.17;;
24337;SDS011;12457;50.832;4.346;2023-07-31T06:47:11;0.20;;;0.20;;
24337;SDS011;12457;50.832;4.346;2023-07-31T06:49:36;0.10;;;0.10;;
24337;SDS011;12457;50.832;4.346;2023-07-31T06:52:02;0.50;;;0.50;;
24337;SDS011;12457;50.832;4.346;2023-07-31T06:54:28;0.20;;;0.20;;
24337;SDS011;12457;50.832;4.346;2023-07-31T06:56:54;0.03;;;0.03;;
24337;SDS011;12457;50.832;4.346;2023-07-31T06:59:19;0.38;;;0.38;;
24337;SDS011;12457;50.832;4.346;2023-07-31T07:01:45;0.80;;;0.68;;
24337;SDS011;12457;50.832;4.346;2023-07-31T07:06:58;0.32;;;0.25;;
24337;SDS011;12457;50.832;4.346;2023-07-31T07:09:23;2.67;;;0.20;;
24337;SDS011;12457;50.832;4.346;2023-07-31T07:11:49;5.22;;;0.50;;
24337;SDS011;12457;50.832;4.346;2023-07-31T07:14:15;0.28;;;0.28;;
24337;SDS011;12457;50.832;4.346;2023-07-31T07:16:41;1.38;;;0.45;;
24337;SDS011;12457;50.832;4.346;2023-07-31T07:19:22;1.17;;;0.85;;
24337;SDS011;12457;50.832;4.346;2023-07-31T07:21:47;3.88;;;1.27;;
24337;SDS011;12457;50.832;4.346;2023-07-31T07:24:13;0.63;;;0.63;;
24337;SDS011;12457;50.832;4.346;2023-07-31T07:26:39;0.20;;;0.20;;
24337;SDS011;12457;50.832;4.346;2023-07-31T07:29:04;0.00;;;0.00;;
24337;SDS011;12457;50.832;4.346;2023-07-31T07:31:32;0.10;;;0.10;;
24337;SDS011;12457;50.832;4.346;2023-07-31T07:33:58;0.57;;;0.52;;
24337;SDS011;12457;50.832;4.346;2023-07-31T07:36:24;0.10;;;0.10;;
24337;SDS011;12457;50.832;4.346;2023-07-31T07:38:49;0.00;;;0.00;;
24337;SDS011;12457;50.832;4.346;2023-07-31T07:41:15;0.73;;;0.70;;
24337;SDS011;12457;50.832;4.346;2023-07-31T07:43:41;0.13;;;0.13;;
24337;SDS011;12457;50.832;4.346;2023-07-31T07:46:06;0.80;;;0.35;;
24337;SDS011;12457;50.832;4.346;2023-07-31T07:48:32;0.15;;;0.15;;
24337;SDS011;12457;50.832;4.346;2023-07-31T07:50:58;0.17;;;0.17;;
24337;SDS011;12457;50.832;4.346;2023-07-31T07:53:23;1.90;;;1.20;;
24337;SDS011;12457;50.832;4.346;2023-07-31T07:55:49;0.32;;;0.32;;
24337;SDS011;12457;50.832;4.346;2023-07-31T07:58:15;0.65;;;0.65;;
24337;SDS011;12457;50.832;4.346;2023-07-31T08:00:40;2.60;;;1.15;;
24337;SDS011;12457;50.832;4.346;2023-07-31T08:03:15;1.67;;;0.73;;
24337;SDS011;12457;50.832;4.346;2023-07-31T08:05:42;0.10;;;0.10;;
24337;SDS011;12457;50.832;4.346;2023-07-31T08:08:13;0.57;;;0.28;;
24337;SDS011;12457;50.832;4.346;2023-07-31T08:10:41;3.65;;;2.35;;
24337;SDS011;12457;50.832;4.346;2023-07-31T08:13:07;0.57;;;0.57;;
24337;SDS011;12457;50.832;4.346;2023-07-31T08:15:32;0.00;;;0.00;;
24337;SDS011;12457;50.832;4.346;2023-07-31T08:17:58;0.00;;;0.00;;
24337;SDS011;12457;50.832;4.346;2023-07-31T08:20:24;1.65;;;0.30;;
24337;SDS011;12457;50.832;4.346;2023-07-31T08:22:51;2.13;;;0.30;;
24337;SDS011;12457;50.832;4.346;2023-07-31T08:25:18;0.47;;;0.47;;
24337;SDS011;12457;50.832;4.346;2023-07-31T08:27:44;0.57;;;0.57;;
24337;SDS011;12457;50.832;4.346;2023-07-31T08:30:10;0.10;;;0.10;;
24337;SDS011;12457;50.832;4.346;2023-07-31T08:32:37;0.00;;;0.00;;
24337;SDS011;12457;50.832;4.346;2023-07-31T08:35:03;0.03;;;0.03;;
24337;SDS011;12457;50.832;4.346;2023-07-31T08:37:29;0.25;;;0.10;;
24337;SDS011;12457;50.832;4.346;2023-07-31T08:39:55;0.22;;;0.20;;
24337;SDS011;12457;50.832;4.346;2023-07-31T08:42:20;0.08;;;0.08;;
24337;SDS011;12457;50.832;4.346;2023-07-31T08:44:46;0.65;;;0.63;;
24337;SDS011;12457;50.832;4.346;2023-07-31T08:47:13;0.10;;;0.10;;
24337;SDS011;12457;50.832;4.346;2023-07-31T08:49:39;0.80;;;0.52;;
24337;SDS011;12457;50.832;4.346;2023-07-31T08:52:06;0.20;;;0.20;;
24337;SDS011;12457;50.832;4.346;2023-07-31T08:54:32;0.43;;;0.43;;
24337;SDS011;12457;50.832;4.346;2023-07-31T08:56:58;1.33;;;0.47;;
24337;SDS011;12457;50.832;4.346;2023-07-31T08:59:25;0.85;;;0.40;;
24337;SDS011;12457;50.832;4.346;2023-07-31T09:01:56;2.92;;;0.85;;
24337;SDS011;12457;50.832;4.346;2023-07-31T09:04:26;0.32;;;0.30;;
24337;SDS011;12457;50.832;4.346;2023-07-31T09:06:53;0.40;;;0.30;;
24337;SDS011;12457;50.832;4.346;2023-07-31T09:09:24;0.25;;;0.25;;
24337;SDS011;12457;50.832;4.346;2023-07-31T09:11:53;0.00;;;0.00;;
24337;SDS011;12457;50.832;4.346;2023-07-31T09:14:22;0.20;;;0.20;;
24337;SDS011;12457;50.832;4.346;2023-07-31T09:16:54;0.40;;;0.40;;
24337;SDS011;12457;50.832;4.346;2023-07-31T09:19:32;0.30;;;0.30;;
24337;SDS011;12457;50.832;4.346;2023-07-31T09:21:59;0.17;;;0.17;;
24337;SDS011;12457;50.832;4.346;2023-07-31T09:24:28;0.00;;;0.00;;
24337;SDS011;12457;50.832;4.346;2023-07-31T09:26:57;0.00;;;0.00;;
24337;SDS011;12457;50.832;4.346;2023-07-31T09:29:26;0.25;;;0.25;;
24337;SDS011;12457;50.832;4.346;2023-07-31T09:31:53;5.18;;;0.45;;
24337;SDS011;12457;50.832;4.346;2023-07-31T09:34:20;0.73;;;0.63;;
24337;SDS011;12457;50.832;4.346;2023-07-31T09:36:54;0.00;;;0.00;;
24337;SDS011;12457;50.832;4.346;2023-07-31T09:39:19;2.35;;;0.65;;
24337;SDS011;12457;50.832;4.346;2023-07-31T09:41:55;1.20;;;0.52;;
24337;SDS011;12457;50.832;4.346;2023-07-31T09:44:21;0.20;;;0.20;;
24337;SDS011;12457;50.832;4.346;2023-07-31T09:47:02;0.00;;;0.00;;
24337;SDS011;12457;50.832;4.346;2023-07-31T09:49:27;0.35;;;0.30;;
24337;SDS011;12457;50.832;4.346;2023-07-31T09:51:54;0.10;;;0.10;;
24337;SDS011;12457;50.832;4.346;2023-07-31T09:54:19;2.47;;;1.25;;
24337;SDS011;12457;50.832;4.346;2023-07-31T09:56:46;10.48;;;5.00;;
24337;SDS011;12457;50.832;4.346;2023-07-31T09:59:17;12.15;;;4.88;;
24337;SDS011;12457;50.832;4.346;2023-07-31T10:01:44;10.80;;;4.82;;
24337;SDS011;12457;50.832;4.346;2023-07-31T10:04:11;15.43;;;5.38;;
24337;SDS011;12457;50.832;4.346;2023-07-31T10:06:41;13.00;;;5.05;;
24337;SDS011;12457;50.832;4.346;2023-07-31T10:09:09;13.25;;;6.20;;
24337;SDS011;12457;50.832;4.346;2023-07-31T10:11:43;10.45;;;5.70;;
24337;SDS011;12457;50.832;4.346;2023-07-31T10:14:21;11.43;;;5.35;;
24337;SDS011;12457;50.832;4.346;2023-07-31T10:16:48;11.57;;;5.35;;
24337;SDS011;12457;50.832;4.346;2023-07-31T10:19:15;14.40;;;6.07;;
24337;SDS011;12457;50.832;4.346;2023-07-31T10:21:44;16.60;;;5.78;;
24337;SDS011;12457;50.832;4.346;2023-07-31T10:24:12;15.38;;;6.00;;
24337;SDS011;12457;50.832;4.346;2023-07-31T10:26:40;13.32;;;5.63;;
24337;SDS011;12457;50.832;4.346;2023-07-31T10:29:10;11.05;;;5.63;;
24337;SDS011;12457;50.832;4.346;2023-07-31T10:31:37;11.73;;;5.70;;
24337;SDS011;12457;50.832;4.346;2023-07-31T10:34:03;14.70;;;5.53;;
24337;SDS011;12457;50.832;4.346;2023-07-31T10:36:30;13.55;;;5.07;;
24337;SDS011;12457;50.832;4.346;2023-07-31T10:38:55;11.32;;;5.35;;
24337;SDS011;12457;50.832;4.346;2023-07-31T10:41:28;14.75;;;5.57;;
24337;SDS011;12457;50.832;4.346;2023-07-31T10:43:57;15.07;;;5.15;;
24337;SDS011;12457;50.832;4.346;2023-07-31T10:46:23;13.32;;;5.03;;
24337;SDS011;12457;50.832;4.346;2023-07-31T10:48:56;14.05;;;4.95;;
24337;SDS011;12457;50.832;4.346;2023-07-31T10:51:33;13.98;;;5.15;;
24337;SDS011;12457;50.832;4.346;2023-07-31T10:54:12;12.73;;;4.95;;
24337;SDS011;12457;50.832;4.346;2023-07-31T10:56:40;13.35;;;5.00;;
24337;SDS011;12457;50.832;4.346;2023-07-31T10:59:11;13.73;;;6.13;;
24337;SDS011;12457;50.832;4.346;2023-07-31T11:01:53;12.60;;;4.82;;
24337;SDS011;12457;50.832;4.346;2023-07-31T11:04:24;13.07;;;4.60;;
24337;SDS011;12457;50.832;4.346;2023-07-31T11:07:00;12.38;;;4.53;;
24337;SDS011;12457;50.832;4.346;2023-07-31T11:09:31;10.77;;;4.20;;
24337;SDS011;12457;50.832;4.346;2023-07-31T11:11:58;11.32;;;5.20;;
24337;SDS011;12457;50.832;4.346;2023-07-31T11:14:25;13.18;;;4.88;;
24337;SDS011;12457;50.832;4.346;2023-07-31T11:16:50;9.98;;;4.30;;
24337;SDS011;12457;50.832;4.346;2023-07-31T11:19:24;10.77;;;5.10;;
24337;SDS011;12457;50.832;4.346;2023-07-31T11:21:51;12.60;;;4.97;;
24337;SDS011;12457;50.832;4.346;2023-07-31T11:24:18;13.63;;;4.85;;
24337;SDS011;12457;50.832;4.346;2023-07-31T11:26:53;25.50;;;5.97;;
24337;SDS011;12457;50.832;4.346;2023-07-31T11:31:45;12.98;;;4.45;;
24337;SDS011;12457;50.832;4.346;2023-07-31T11:34:12;15.88;;;5.43;;
24337;SDS011;12457;50.832;4.346;2023-07-31T11:36:38;12.40;;;5.80;;
24337;SDS011;12457;50.832;4.346;2023-07-31T11:39:05;15.43;;;4.88;;
24337;SDS011;12457;50.832;4.346;2023-07-31T11:41:32;10.35;;;4.32;;
24337;SDS011;12457;50.832;4.346;2023-07-31T11:44:01;12.43;;;4.75;;
24337;SDS011;12457;50.832;4.346;2023-07-31T11:46:28;13.35;;;4.82;;
24337;SDS011;12457;50.832;4.346;2023-07-31T11:48:59;13.82;;;4.90;;
24337;SDS011;12457;50.832;4.346;2023-07-31T11:51:25;11.38;;;5.15;;
24337;SDS011;12457;50.832;4.346;2023-07-31T11:53:54;13.75;;;5.38;;
24337;SDS011;12457;50.832;4.346;2023-07-31T11:56:23;13.48;;;5.05;;
24337;SDS011;12457;50.832;4.346;2023-07-31T11:58:52;9.25;;;4.28;;
24337;SDS011;12457;50.832;4.346;2023-07-31T12:01:22;11.90;;;4.90;;
24337;SDS011;12457;50.832;4.346;2023-07-31T12:03:49;14.45;;;4.60;;
24337;SDS011;12457;50.832;4.346;2023-07-31T12:06:15;13.75;;;5.13;;
24337;SDS011;12457;50.832;4.346;2023-07-31T12:08:41;14.40;;;4.50;;
24337;SDS011;12457;50.832;4.346;2023-07-31T12:11:08;11.57;;;4.15;;
24337;SDS011;12457;50.832;4.346;2023-07-31T12:13:41;10.57;;;4.13;;
24337;SDS011;12457;50.832;4.346;2023-07-31T12:16:07;13.48;;;4.75;;
24337;SDS011;12457;50.832;4.346;2023-07-31T12:18:36;10.70;;;4.43;;
24337;SDS011;12457;50.832;4.346;2023-07-31T12:21:04;11.90;;;4.43;;
24337;SDS011;12457;50.832;4.346;2023-07-31T12:23:32;8.43;;;4.38;;
24337;SDS011;12457;50.832;4.346;2023-07-31T12:26:08;16.55;;;4.45;;
24337;SDS011;12457;50.832;4.346;2023-07-31T12:28:36;12.73;;;4.35;;
24337;SDS011;12457;50.832;4.346;2023-07-31T12:31:05;11.52;;;4.57;;
24337;SDS011;12457;50.832;4.346;2023-07-31T12:33:32;9.93;;;4.43;;
24337;SDS011;12457;50.832;4.346;2023-07-31T12:36:00;11.52;;;4.78;;
24337;SDS011;12457;50.832;4.346;2023-07-31T12:38:27;10.27;;;4.57;;
24337;SDS011;12457;50.832;4.346;2023-07-31T12:40:53;12.85;;;5.47;;
24337;SDS011;12457;50.832;4.346;2023-07-31T12:43:20;14.80;;;5.25;;
24337;SDS011;12457;50.832;4.346;2023-07-31T12:45:46;8.75;;;3.83;;
24337;SDS011;12457;50.832;4.346;2023-07-31T12:48:12;10.02;;;4.40;;
24337;SDS011;12457;50.832;4.346;2023-07-31T12:50:47;8.52;;;4.13;;
24337;SDS011;12457;50.832;4.346;2023-07-31T12:53:14;8.57;;;3.97;;
24337;SDS011;12457;50.832;4.346;2023-07-31T12:55:40;15.60;;;5.07;;
24337;SDS011;12457;50.832;4.346;2023-07-31T12:58:07;8.32;;;3.90;;
24337;SDS011;12457;50.832;4.346;2023-07-31T13:00:33;12.82;;;4.43;;
24337;SDS011;12457;50.832;4.346;2023-07-31T13:02:59;9.38;;;3.85;;
24337;SDS011;12457;50.832;4.346;2023-07-31T13:05:26;11.98;;;3.70;;
24337;SDS011;12457;50.832;4.346;2023-07-31T13:07:52;9.43;;;3.58;;
24337;SDS011;12457;50.832;4.346;2023-07-31T13:10:18;7.38;;;3.13;;
24337;SDS011;12457;50.832;4.346;2023-07-31T13:12:44;7.13;;;2.90;;
24337;SDS011;12457;50.832;4.346;2023-07-31T13:15:10;6.25;;;3.05;;
24337;SDS011;12457;50.832;4.346;2023-07-31T13:17:35;6.70;;;2.92;;
24337;SDS011;12457;50.832;4.346;2023-07-31T13:20:01;5.25;;;2.67;;
24337;SDS011;12457;50.832;4.346;2023-07-31T13:22:28;9.85;;;3.65;;
24337;SDS011;12457;50.832;4.346;2023-07-31T13:24:54;9.55;;;3.22;;
24337;SDS011;12457;50.832;4.346;2023-07-31T13:27:20;9.18;;;3.35;;
24337;SDS011;12457;50.832;4.346;2023-07-31T13:29:49;6.20;;;3.45;;
24337;SDS011;12457;50.832;4.346;2023-07-31T13:32:18;8.27;;;3.50;;
24337;SDS011;12457;50.832;4.346;2023-07-31T13:34:46;6.43;;;3.10;;
24337;SDS011;12457;50.832;4.346;2023-07-31T13:37:12;11.80;;;3.47;;
24337;SDS011;12457;50.832;4.346;2023-07-31T13:39:38;7.30;;;3.50;;
24337;SDS011;12457;50.832;4.346;2023-07-31T13:42:05;7.82;;;3.70;;
24337;SDS011;12457;50.832;4.346;2023-07-31T13:44:34;10.75;;;3.45;;
24337;SDS011;12457;50.832;4.346;2023-07-31T13:47:00;7.85;;;3.80;;
24337;SDS011;12457;50.832;4.346;2023-07-31T13:49:27;14.75;;;5.18;;
24337;SDS011;12457;50.832;4.346;2023-07-31T13:51:54;8.48;;;3.65;;
24337;SDS011;12457;50.832;4.346;2023-07-31T13:54:19;7.65;;;3.90;;
24337;SDS011;12457;50.832;4.346;2023-07-31T13:56:45;8.95;;;3.80;;
24337;SDS011;12457;50.832;4.346;2023-07-31T13:59:11;6.72;;;4.03;;
24337;SDS011;12457;50.832;4.346;2023-07-31T14:01:37;7.75;;;3.58;;
24337;SDS011;12457;50.832;4.346;2023-07-31T14:04:03;9.45;;;4.10;;
24337;SDS011;12457;50.832;4.346;2023-07-31T14:06:28;7.40;;;3.40;;
24337;SDS011;12457;50.832;4.346;2023-07-31T14:08:54;8.00;;;3.63;;
24337;SDS011;12457;50.832;4.346;2023-07-31T14:11:21;9.95;;;4.22;;
24337;SDS011;12457;50.832;4.346;2023-07-31T14:13:50;6.22;;;3.60;;
24337;SDS011;12457;50.832;4.346;2023-07-31T14:16:16;8.07;;;3.90;;
24337;SDS011;12457;50.832;4.346;2023-07-31T14:18:42;10.73;;;3.88;;
24337;SDS011;12457;50.832;4.346;2023-07-31T14:21:08;7.18;;;3.95;;
24337;SDS011;12457;50.832;4.346;2023-07-31T14:23:34;6.90;;;3.72;;
24337;SDS011;12457;50.832;4.346;2023-07-31T14:26:00;9.65;;;4.38;;
24337;SDS011;12457;50.832;4.346;2023-07-31T14:28:25;9.20;;;4.13;;
24337;SDS011;12457;50.832;4.346;2023-07-31T14:30:51;7.90;;;4.18;;
24337;SDS011;12457;50.832;4.346;2023-07-31T14:33:17;11.60;;;4.65;;
24337;SDS011;12457;50.832;4.346;2023-07-31T14:35:42;8.55;;;3.78;;
24337;SDS011;12457;50.832;4.346;2023-07-31T14:38:14;9.23;;;4.53;;
24337;SDS011;12457;50.832;4.346;2023-07-31T14:40:39;7.10;;;3.63;;
24337;SDS011;12457;50.832;4.346;2023-07-31T14:43:05;8.50;;;3.85;;
24337;SDS011;12457;50.832;4.346;2023-07-31T14:45:31;10.98;;;4.10;;
24337;SDS011;12457;50.832;4.346;2023-07-31T14:47:57;5.38;;;2.97;;
24337;SDS011;12457;50.832;4.346;2023-07-31T14:50:23;5.90;;;2.97;;
24337;SDS011;12457;50.832;4.346;2023-07-31T14:52:50;7.47;;;3.35;;
24337;SDS011;12457;50.832;4.346;2023-07-31T14:55:16;5.20;;;2.95;;